Time;durP1;ratioP1;P1;durP2;ratioP2;P2;SDS_P1;SDS_P2;PMS_P1;PMS_P2;Temp;Humidity;BMP_temperature;BMP_pressure;BME280_temperature;BME280_humidity;BME280_pressure;Samples;Min_cycle;Max_cycle;Signal;HPM_P1;HPM_P2
2021/10/15 00:02:06;;;;;;;4.47;4.13;;;11.30;99.90;;;;;;6143232;23;20410;-79
2021/10/15 00:04:52;;;;;;;4.00;3.63;;;11.20;99.90;;;;;;6156715;23;20790;-81
2021/10/15 00:07:37;;;;;;;5.10;4.68;;;11.30;99.90;;;;;;6143792;23;20995;-80
2021/10/15 00:10:23;;;;;;;4.78;4.32;;;11.20;99.90;;;;;;6143791;23;20430;-80
2021/10/15 00:13:09;;;;;;;5.18;4.68;;;11.20;99.90;;;;;;6144256;23;20371;-82
2021/10/15 00:15:54;;;;;;;4.60;4.20;;;11.20;99.90;;;;;;6165052;23;20427;-81
2021/10/15 00:18:39;;;;;;;4.68;4.28;;;11.30;99.90;;;;;;6145383;23;20456;-81
2021/10/15 00:21:23;;;;;;;4.50;4.10;;;11.20;99.90;;;;;;6186207;23;20374;-84
2021/10/15 00:24:08;;;;;;;4.30;4.00;;;11.30;99.90;;;;;;6145299;23;20453;-82
2021/10/15 00:26:53;;;;;;;4.85;4.28;;;11.30;99.90;;;;;;6145577;23;20850;-83
2021/10/15 00:29:38;;;;;;;4.18;3.78;;;11.20;99.90;;;;;;6199249;23;20379;-81
2021/10/15 00:32:23;;;;;;;4.65;4.25;;;11.30;99.90;;;;;;6211141;23;20362;-79
2021/10/15 00:35:08;;;;;;;3.80;3.50;;;11.30;99.90;;;;;;6143917;23;20362;-78
2021/10/15 00:37:53;;;;;;;5.55;4.20;;;11.30;99.90;;;;;;6165216;23;20374;-80
2021/10/15 00:40:38;;;;;;;3.50;3.20;;;11.20;99.90;;;;;;6163961;23;20379;-85
2021/10/15 00:43:25;;;;;;;4.75;4.28;;;11.20;99.90;;;;;;6184037;23;20387;-82
2021/10/15 00:46:10;;;;;;;3.50;3.15;;;11.20;99.90;;;;;;6180254;23;20381;-82
2021/10/15 00:48:56;;;;;;;3.80;3.50;;;11.20;99.90;;;;;;6179914;23;20370;-83
2021/10/15 00:51:44;;;;;;;3.43;3.13;;;11.20;99.90;;;;;;6162682;23;20395;-81
2021/10/15 00:54:29;;;;;;;3.63;3.33;;;11.30;99.90;;;;;;6163858;23;20391;-82
2021/10/15 00:57:14;;;;;;;3.40;3.10;;;11.30;99.90;;;;;;6187135;23;20403;-79
2021/10/15 00:59:58;;;;;;;3.92;3.53;;;11.20;99.90;;;;;;6159616;23;20378;-79
2021/10/15 01:02:43;;;;;;;3.88;3.42;;;11.20;99.90;;;;;;6162612;23;20375;-82
2021/10/15 01:05:28;;;;;;;2.90;2.70;;;11.20;99.90;;;;;;6140474;23;20378;-81
2021/10/15 01:08:13;;;;;;;4.10;3.70;;;11.20;99.90;;;;;;6161193;23;20447;-79
2021/10/15 01:10:58;;;;;;;4.13;3.72;;;11.20;99.90;;;;;;6141233;23;20367;-83
2021/10/15 01:13:43;;;;;;;4.18;3.78;;;11.20;99.90;;;;;;6181879;23;20442;-83
2021/10/15 01:16:30;;;;;;;4.20;3.70;;;11.20;99.90;;;;;;6136291;23;20434;-80
2021/10/15 01:19:16;;;;;;;3.77;3.47;;;11.10;99.90;;;;;;6160141;23;20366;-80
2021/10/15 01:22:02;;;;;;;4.00;3.70;;;11.10;99.90;;;;;;6205534;23;20953;-81
2021/10/15 01:24:48;;;;;;;3.55;3.25;;;11.10;99.90;;;;;;6203144;23;20362;-80
2021/10/15 01:27:33;;;;;;;3.70;3.40;;;11.10;99.90;;;;;;6163248;23;20370;-86
2021/10/15 01:30:18;;;;;;;4.75;4.25;;;11.10;99.90;;;;;;6154624;23;20371;-81
2021/10/15 01:33:03;;;;;;;4.00;3.70;;;11.10;99.90;;;;;;6162566;23;20521;-80
2021/10/15 01:35:47;;;;;;;5.75;4.28;;;11.10;99.90;;;;;;6158222;23;21049;-81
2021/10/15 01:38:33;;;;;;;3.63;3.33;;;11.10;99.90;;;;;;6159591;23;20902;-82
2021/10/15 01:41:19;;;;;;;3.97;3.67;;;11.10;99.90;;;;;;6141268;23;20417;-81
2021/10/15 01:44:04;;;;;;;4.10;3.70;;;11.10;99.90;;;;;;6205053;23;20370;-84
2021/10/15 01:46:50;;;;;;;3.45;3.15;;;11.10;99.90;;;;;;6167075;23;20363;-83
2021/10/15 01:49:34;;;;;;;4.15;3.85;;;11.10;99.90;;;;;;6187667;23;20374;-84
2021/10/15 01:52:19;;;;;;;3.90;3.60;;;11.10;99.90;;;;;;6157889;23;20720;-83
2021/10/15 01:55:08;;;;;;;4.47;4.07;;;11.10;99.90;;;;;;6154207;23;20885;-80
2021/10/15 01:57:53;;;;;;;4.45;3.95;;;11.10;99.90;;;;;;6139391;23;20907;-80
2021/10/15 02:00:39;;;;;;;4.38;4.07;;;11.10;99.90;;;;;;6177485;23;20434;-87
2021/10/15 02:03:24;;;;;;;5.13;4.63;;;11.10;99.90;;;;;;6136554;23;20418;-84
2021/10/15 02:06:10;;;;;;;5.22;4.72;;;11.10;99.90;;;;;;6161048;23;20362;-80
2021/10/15 02:08:54;;;;;;;4.15;3.85;;;11.00;99.90;;;;;;6139200;23;20904;-85
2021/10/15 02:11:39;;;;;;;4.50;4.10;;;11.10;99.90;;;;;;6180344;23;20487;-82
2021/10/15 02:14:24;;;;;;;4.72;4.22;;;11.10;99.90;;;;;;6142443;23;20514;-79
2021/10/15 02:17:08;;;;;;;4.82;4.38;;;11.10;99.90;;;;;;6204611;23;20545;-83
2021/10/15 02:19:53;;;;;;;5.20;4.20;;;11.10;99.90;;;;;;6185387;23;20429;-84
2021/10/15 02:22:41;;;;;;;4.32;3.92;;;11.10;99.90;;;;;;6166812;23;20382;-82
2021/10/15 02:25:25;;;;;;;4.83;4.37;;;11.00;99.90;;;;;;6207322;23;20748;-80
2021/10/15 02:28:09;;;;;;;4.50;4.10;;;11.10;99.90;;;;;;6161991;23;20421;-80
2021/10/15 02:30:53;;;;;;;5.07;4.05;;;11.00;99.90;;;;;;6141770;23;20379;-79
2021/10/15 02:33:38;;;;;;;4.40;3.97;;;11.10;99.90;;;;;;6183675;23;20486;-79
2021/10/15 02:36:24;;;;;;;3.63;3.33;;;11.10;99.90;;;;;;6182569;23;20390;-79
2021/10/15 02:39:10;;;;;;;4.38;3.97;;;11.10;99.90;;;;;;6181768;23;20363;-80
2021/10/15 02:41:56;;;;;;;4.15;3.83;;;11.00;99.90;;;;;;6162216;23;20366;-83
2021/10/15 02:44:43;;;;;;;3.80;3.40;;;11.10;99.90;;;;;;6136272;23;20730;-79
2021/10/15 02:47:28;;;;;;;4.23;3.83;;;11.10;99.90;;;;;;6187046;23;20367;-79
2021/10/15 02:50:14;;;;;;;3.75;3.45;;;11.10;99.90;;;;;;6185140;23;20367;-83
2021/10/15 02:52:59;;;;;;;3.20;3.00;;;11.00;99.90;;;;;;6184259;23;20409;-81
2021/10/15 02:55:45;;;;;;;3.60;2.97;;;11.10;99.90;;;;;;6136782;23;20366;-79
2021/10/15 02:58:30;;;;;;;3.25;2.70;;;11.10;99.90;;;;;;6165294;23;20398;-82
2021/10/15 03:01:16;;;;;;;3.03;2.83;;;11.10;99.90;;;;;;6162054;23;20371;-82
2021/10/15 03:04:02;;;;;;;2.90;2.70;;;11.10;99.90;;;;;;6143184;23;20402;-79
2021/10/15 03:06:51;;;;;;;3.13;2.83;;;11.10;99.90;;;;;;6161203;23;20494;-80
2021/10/15 03:09:36;;;;;;;3.40;3.10;;;11.00;99.90;;;;;;6137251;23;20374;-80
2021/10/15 03:12:21;;;;;;;3.05;2.75;;;11.10;99.90;;;;;;6148588;23;20370;-83
2021/10/15 03:15:08;;;;;;;3.20;2.90;;;11.00;99.90;;;;;;6193328;23;20901;-81
2021/10/15 03:17:53;;;;;;;3.50;2.88;;;11.00;99.90;;;;;;6166059;23;20422;-79
2021/10/15 03:20:38;;;;;;;3.00;2.80;;;11.00;99.90;;;;;;6166063;23;20744;-79
2021/10/15 03:23:24;;;;;;;2.75;2.53;;;11.00;99.90;;;;;;6159860;23;20379;-82
2021/10/15 03:26:10;;;;;;;3.00;2.80;;;11.10;99.90;;;;;;6158324;23;20683;-82
2021/10/15 03:28:56;;;;;;;2.25;2.15;;;11.10;99.90;;;;;;6177595;23;20419;-87
2021/10/15 03:31:42;;;;;;;2.58;2.38;;;11.00;99.90;;;;;;6154713;23;20407;-84
2021/10/15 03:34:29;;;;;;;2.83;2.63;;;11.10;99.90;;;;;;6155608;23;20371;-82
2021/10/15 03:37:17;;;;;;;2.60;2.40;;;11.10;99.90;;;;;;6164598;23;20411;-82
2021/10/15 03:40:03;;;;;;;2.90;2.70;;;11.10;99.90;;;;;;6155449;23;20370;-82
2021/10/15 03:42:49;;;;;;;2.70;2.33;;;11.10;99.90;;;;;;6159041;23;20696;-81
2021/10/15 03:45:35;;;;;;;2.40;2.20;;;11.10;99.90;;;;;;6141141;23;20379;-81
2021/10/15 03:48:20;;;;;;;2.90;2.50;;;11.10;99.90;;;;;;6157437;23;21065;-83
2021/10/15 03:51:11;;;;;;;2.75;2.55;;;11.10;99.90;;;;;;6159457;23;20375;-85
2021/10/15 03:53:59;;;;;;;3.73;3.43;;;11.10;99.90;;;;;;6157540;23;20487;-82
2021/10/15 03:56:47;;;;;;;2.95;2.72;;;11.10;99.90;;;;;;6174407;23;20394;-82
2021/10/15 03:59:33;;;;;;;2.53;2.25;;;11.10;99.90;;;;;;6182300;23;20435;-82
2021/10/15 04:02:18;;;;;;;2.60;2.40;;;11.10;99.90;;;;;;6158919;23;20369;-82
2021/10/15 04:05:06;;;;;;;2.47;2.30;;;11.10;99.90;;;;;;6157687;23;20375;-82
2021/10/15 04:07:52;;;;;;;3.00;2.70;;;11.10;99.90;;;;;;6130936;23;20427;-82
2021/10/15 04:10:38;;;;;;;2.38;2.25;;;11.10;99.90;;;;;;6180972;23;20371;-81
2021/10/15 04:13:25;;;;;;;3.05;2.70;;;11.20;99.90;;;;;;6180408;23;20390;-83
2021/10/15 04:16:11;;;;;;;2.08;1.98;;;11.10;99.90;;;;;;6157684;23;20739;-82
2021/10/15 04:18:57;;;;;;;2.60;2.40;;;11.00;99.90;;;;;;6160742;23;20890;-81
2021/10/15 04:21:46;;;;;;;3.53;2.83;;;10.90;99.90;;;;;;6180048;23;20434;-83
2021/10/15 04:24:32;;;;;;;3.45;3.15;;;11.10;99.90;;;;;;6184968;23;20434;-81
2021/10/15 04:27:18;;;;;;;2.80;2.60;;;11.20;99.90;;;;;;6180134;23;20740;-82
2021/10/15 04:30:06;;;;;;;3.20;2.90;;;11.10;99.90;;;;;;6213644;23;20441;-86
2021/10/15 04:32:52;;;;;;;2.80;2.60;;;11.00;99.90;;;;;;6177976;23;20370;-80
2021/10/15 04:35:38;;;;;;;2.20;2.10;;;11.10;99.90;;;;;;6165784;23;20416;-88
2021/10/15 04:38:23;;;;;;;3.20;2.40;;;11.10;99.90;;;;;;6183766;23;20438;-82
2021/10/15 04:41:08;;;;;;;2.55;2.35;;;11.10;99.90;;;;;;6141333;23;20402;-84
2021/10/15 04:43:56;;;;;;;2.47;2.28;;;11.00;99.90;;;;;;6181208;23;20375;-81
2021/10/15 04:46:40;;;;;;;2.60;2.40;;;11.00;99.90;;;;;;6187600;23;20387;-81
2021/10/15 04:59:16;;;;;;;2.58;2.38;;;11.00;99.90;;;;;;6233065;22;20427;-82
2021/10/15 05:02:09;;;;;;;2.40;2.20;;;10.90;99.90;;;;;;6188936;23;20378;-80
2021/10/15 05:05:52;;;;;;;2.60;2.40;;;11.00;99.90;;;;;;6198412;22;20394;-80
2021/10/15 05:10:23;;;;;;;2.63;2.43;;;11.10;99.90;;;;;;6152228;23;20369;-83
2021/10/15 05:13:30;;;;;;;2.38;2.20;;;10.90;99.90;;;;;;6124075;23;20434;-80
